createdAt,value
2022-08-09T00:00:04.878Z,0
2022-08-09T00:05:03.153Z,0
2022-08-09T00:10:00.288Z,0
2022-08-09T00:15:06.271Z,0
2022-08-09T00:19:59.978Z,0
2022-08-09T00:25:00.282Z,0
2022-08-09T00:30:16.589Z,0
2022-08-09T00:35:00.010Z,0
2022-08-09T00:40:12.993Z,0
2022-08-09T00:44:59.918Z,0
2022-08-09T00:50:00.405Z,0
2022-08-09T00:55:01.232Z,0
2022-08-09T01:00:00.666Z,0
2022-08-09T01:04:59.961Z,0
2022-08-09T01:09:59.988Z,0
2022-08-09T01:15:01.034Z,0
2022-08-09T01:20:02.708Z,0
2022-08-09T01:25:00.724Z,0
2022-08-09T01:30:01.650Z,0
2022-08-09T01:35:00.145Z,0
2022-08-09T01:40:01.566Z,0
2022-08-09T01:44:59.955Z,0
2022-08-09T01:50:00.226Z,0
2022-08-09T01:54:59.976Z,0
2022-08-09T02:00:08.820Z,0
2022-08-09T02:05:04.520Z,0
2022-08-09T02:10:01.446Z,0
2022-08-09T02:15:00.109Z,0
2022-08-09T02:20:02.083Z,0
2022-08-09T02:24:59.878Z,0
2022-08-09T02:30:00.149Z,0
2022-08-09T02:34:59.984Z,0
2022-08-09T02:40:01.349Z,0
2022-08-09T02:45:00.060Z,0
2022-08-09T02:50:03.120Z,0
2022-08-09T02:54:59.866Z,0
2022-08-09T03:00:25.249Z,0
2022-08-09T03:05:00.047Z,0
2022-08-09T03:10:00.458Z,0
2022-08-09T03:15:00.026Z,0
2022-08-09T03:20:04.985Z,0
2022-08-09T03:25:06.315Z,0
2022-08-09T03:30:01.252Z,0
2022-08-09T03:34:59.859Z,0
2022-08-09T03:40:00.312Z,0
2022-08-09T03:44:59.811Z,0
2022-08-09T03:50:00.143Z,0
2022-08-09T03:55:00.131Z,0
2022-08-09T04:00:01.272Z,0
2022-08-09T04:05:00.931Z,0
2022-08-09T04:10:00.017Z,0.2
2022-08-09T04:15:02.148Z,0.8
2022-08-09T04:20:02.596Z,1.6
2022-08-09T04:25:00.076Z,2.6
2022-08-09T04:29:59.984Z,3.8
2022-08-09T04:35:01.326Z,5
2022-08-09T04:39:59.841Z,6.4
2022-08-09T04:44:59.814Z,7.8
2022-08-09T04:50:00.170Z,9.1
2022-08-09T04:54:59.768Z,10.6
2022-08-09T04:59:59.803Z,12
2022-08-09T05:05:09.825Z,13.2
2022-08-09T05:10:02.234Z,14.6
2022-08-09T05:14:59.776Z,16.2
2022-08-09T05:20:00.251Z,17.5
2022-08-09T05:25:01.051Z,18.6
2022-08-09T05:29:59.913Z,19.7
2022-08-09T05:35:00.040Z,20.9
2022-08-09T05:39:59.883Z,22.4
2022-08-09T05:44:59.998Z,23.7
2022-08-09T05:50:25.731Z,25
2022-08-09T05:55:06.780Z,26.4
2022-08-09T05:59:59.890Z,27.8
2022-08-09T06:04:59.787Z,29.1
2022-08-09T06:10:02.419Z,30.9
2022-08-09T06:15:01.884Z,30.6
2022-08-09T06:19:59.764Z,32.3
2022-08-09T06:25:00.009Z,33.8
2022-08-09T06:30:08.688Z,35.3
2022-08-09T06:34:59.782Z,36.3
2022-08-09T06:40:03.550Z,35.4
2022-08-09T06:45:00.281Z,36
2022-08-09T06:50:13.393Z,36.5
2022-08-09T06:55:00.034Z,37.2
2022-08-09T07:00:50.101Z,37.9
2022-08-09T07:05:00.382Z,38.2
2022-08-09T07:10:14.193Z,38.9
2022-08-09T07:14:59.684Z,39.5
2022-08-09T07:19:59.729Z,39.8
2022-08-09T07:25:00.014Z,40.4
2022-08-09T07:29:59.974Z,41.1
2022-08-09T07:34:59.880Z,41.7
2022-08-09T07:39:59.987Z,42.2
2022-08-09T07:45:02.471Z,42.5
2022-08-09T07:50:07.898Z,43
2022-08-09T07:54:59.788Z,43.6
2022-08-09T08:00:03.097Z,43.9
2022-08-09T08:04:59.825Z,44.2
2022-08-09T08:10:08.127Z,44.5
2022-08-09T08:15:00.041Z,45.1
2022-08-09T08:19:59.668Z,44.6
2022-08-09T08:24:59.850Z,42.7
2022-08-09T08:30:03.598Z,44.4
2022-08-09T08:34:59.824Z,46.7
2022-08-09T08:40:00.024Z,48.5
2022-08-09T08:45:00.185Z,49.5
2022-08-09T08:50:02.504Z,52.3
2022-08-09T08:55:01.305Z,55.4
2022-08-09T08:59:59.660Z,59.8
2022-08-09T09:05:06.113Z,65.3
2022-08-09T09:10:04.576Z,71.7
2022-08-09T09:15:00.306Z,78.2
2022-08-09T09:19:59.978Z,81.9
2022-08-09T09:26:03.807Z,86.2
2022-08-09T09:30:08.383Z,93.5
2022-08-09T09:35:02.369Z,102.3
2022-08-09T09:39:59.706Z,111.1
2022-08-09T09:44:59.524Z,117.2
2022-08-09T09:50:14.458Z,123.4
2022-08-09T09:54:59.681Z,130.5
2022-08-09T09:59:59.768Z,137.9
2022-08-09T10:04:59.872Z,145.6
2022-08-09T10:09:59.856Z,153
2022-08-09T10:14:59.633Z,158.8
2022-08-09T10:20:00.240Z,164.6
2022-08-09T10:25:03.263Z,166.3
2022-08-09T10:30:22.784Z,169.7
2022-08-09T10:34:59.848Z,174.2
2022-08-09T10:39:59.766Z,179
2022-08-09T10:44:59.646Z,187.3
2022-08-09T10:50:03.659Z,193.5
2022-08-09T10:54:59.777Z,201.8
2022-08-09T11:00:01.559Z,223.6
2022-08-09T11:04:59.855Z,263.3
2022-08-09T11:10:00.107Z,305.1
2022-08-09T11:14:59.783Z,331.4
2022-08-09T11:20:10.082Z,365.9
2022-08-09T11:24:59.658Z,390.5
2022-08-09T11:30:04.656Z,407.2
2022-08-09T11:34:59.573Z,428.6
2022-08-09T11:39:59.910Z,460.5
2022-08-09T11:44:59.513Z,507.2
2022-08-09T11:50:52.179Z,552.7
2022-08-09T11:54:59.532Z,582.5
2022-08-09T12:00:02.407Z,627
2022-08-09T12:04:59.505Z,703.8
2022-08-09T12:09:59.654Z,752.4
2022-08-09T12:15:07.505Z,789.4
2022-08-09T12:19:59.981Z,830.9
2022-08-09T12:24:59.550Z,871.1
2022-08-09T12:30:35.788Z,891.9
2022-08-09T12:34:59.492Z,910.9
2022-08-09T12:39:59.558Z,918.6
2022-08-09T12:45:00.089Z,957.6
2022-08-09T12:49:59.438Z,997.9
2022-08-09T12:56:11.133Z,1034.3
2022-08-09T13:00:03.821Z,1079.6
2022-08-09T13:04:59.525Z,1086.5
2022-08-09T13:10:01.137Z,1077.7
2022-08-09T13:14:59.545Z,1121.4
2022-08-09T13:20:10.212Z,1101.7
2022-08-09T13:25:03.673Z,1048.4
2022-08-09T13:30:49.078Z,907.1
2022-08-09T13:34:59.554Z,950.1
2022-08-09T13:41:55.412Z,1071.4
2022-08-09T13:44:59.380Z,1073.2
2022-08-09T13:50:00.903Z,1070.6
2022-08-09T13:55:04.334Z,837
2022-08-09T13:59:59.355Z,688.8
2022-08-09T14:05:00.564Z,791.7
2022-08-09T14:09:59.394Z,796.5
2022-08-09T14:14:59.652Z,627.4
2022-08-09T14:19:59.366Z,702.1
2022-08-09T14:24:59.482Z,755.6
2022-08-09T14:30:34.051Z,790.8
2022-08-09T14:34:59.413Z,944.8
2022-08-09T14:39:59.604Z,800
2022-08-09T14:45:00.677Z,797.6
2022-08-09T14:50:01.374Z,882.7
2022-08-09T14:54:59.261Z,867.5
2022-08-09T14:59:59.511Z,958.9
2022-08-09T15:04:59.783Z,986.8
2022-08-09T15:10:07.151Z,977.5
2022-08-09T15:14:59.503Z,933.5
2022-08-09T15:20:02.680Z,871.2
2022-08-09T15:24:59.293Z,848.5
2022-08-09T15:30:57.083Z,789.7
2022-08-09T15:34:59.901Z,806.7
2022-08-09T15:39:59.680Z,738.1
2022-08-09T15:44:59.458Z,690.6
2022-08-09T15:50:03.384Z,644.6
2022-08-09T15:54:59.347Z,559.9
2022-08-09T15:59:59.598Z,464
2022-08-09T16:04:59.426Z,403.3
2022-08-09T16:10:04.663Z,355.7
2022-08-09T16:14:59.541Z,278.8
2022-08-09T16:20:05.093Z,218.2
2022-08-09T16:24:59.751Z,180.8
2022-08-09T16:30:01.073Z,150.3
2022-08-09T16:34:59.496Z,124.5
2022-08-09T16:40:05.063Z,103.1
2022-08-09T16:44:59.359Z,85.9
2022-08-09T16:50:29.507Z,74.2
2022-08-09T16:54:59.541Z,64.1
2022-08-09T16:59:59.532Z,50.3
2022-08-09T17:04:59.532Z,41.1
2022-08-09T17:10:02.158Z,36.2
2022-08-09T17:14:59.577Z,32.9
2022-08-09T17:20:28.260Z,30.8
2022-08-09T17:25:03.311Z,29
2022-08-09T17:29:59.225Z,27.3
2022-08-09T17:35:07.537Z,25.6
2022-08-09T17:39:59.507Z,24.8
2022-08-09T17:44:59.226Z,23.7
2022-08-09T17:50:07.634Z,22.6
2022-08-09T17:54:59.286Z,21.8
2022-08-09T18:00:05.355Z,20.8
2022-08-09T18:04:59.237Z,19.9
2022-08-09T18:10:05.175Z,19
2022-08-09T18:14:59.194Z,17.9
2022-08-09T18:20:56.291Z,16.8
2022-08-09T18:24:59.122Z,15.5
2022-08-09T18:30:42.021Z,14.3
2022-08-09T18:35:00.462Z,13.2
2022-08-09T18:40:00.479Z,12.5
2022-08-09T18:45:01.102Z,11.1
2022-08-09T18:50:03.045Z,9.4
2022-08-09T18:55:00.468Z,8
2022-08-09T19:00:03.994Z,6.7
2022-08-09T19:05:03.983Z,5.3
2022-08-09T19:10:13.967Z,3.7
2022-08-09T19:15:00.451Z,2.4
2022-08-09T19:20:01.038Z,1.3
2022-08-09T19:25:05.173Z,0.5
2022-08-09T19:30:22.307Z,0.2
2022-08-09T19:35:00.410Z,0.1
2022-08-09T19:40:03.576Z,0
2022-08-09T19:45:00.248Z,0
2022-08-09T19:50:06.718Z,0
2022-08-09T19:55:00.612Z,0
2022-08-09T20:00:07.544Z,0
2022-08-09T20:05:00.607Z,0
2022-08-09T20:10:00.297Z,0
2022-08-09T20:15:00.461Z,0
2022-08-09T20:20:00.258Z,0
2022-08-09T20:25:00.764Z,0
2022-08-09T20:30:00.403Z,0
2022-08-09T20:35:01.636Z,0
2022-08-09T20:40:17.676Z,0
2022-08-09T20:45:56.946Z,0
2022-08-09T20:50:00.505Z,0
2022-08-09T20:55:00.217Z,0
2022-08-09T21:00:22.247Z,0
2022-08-09T21:05:54.481Z,0
2022-08-09T21:10:00.938Z,0
2022-08-09T21:15:00.096Z,0
2022-08-09T21:20:17.676Z,0
2022-08-09T21:25:00.261Z,0
2022-08-09T21:30:00.316Z,0
2022-08-09T21:35:00.456Z,0
2022-08-09T21:40:00.415Z,0
2022-08-09T21:45:00.268Z,0
2022-08-09T21:50:00.265Z,0
2022-08-09T21:55:04.327Z,0
2022-08-09T22:00:00.636Z,0
2022-08-09T22:05:16.711Z,0
2022-08-09T22:10:00.196Z,0
2022-08-09T22:15:00.362Z,0
2022-08-09T22:20:00.759Z,0
2022-08-09T22:26:04.440Z,0
2022-08-09T22:30:00.282Z,0
2022-08-09T22:35:02.490Z,0
2022-08-09T22:40:00.427Z,0
2022-08-09T22:48:13.938Z,0
2022-08-09T22:50:00.595Z,0
2022-08-09T22:55:00.146Z,0
2022-08-09T23:00:00.160Z,0
2022-08-09T23:05:00.344Z,0
2022-08-09T23:10:00.083Z,0
2022-08-09T23:15:00.006Z,0
2022-08-09T23:20:06.471Z,0
2022-08-09T23:25:00.304Z,0
2022-08-09T23:30:00.325Z,0
2022-08-09T23:35:00.413Z,0
2022-08-09T23:40:00.064Z,0
2022-08-09T23:45:00.076Z,0
2022-08-09T23:50:00.080Z,0
2022-08-09T23:55:00.007Z,0
